Weather observations for the past three days for
Broomfield / Jeffco
Imperial (Metric)
Date Time (mdt) Wind (mph) Vis. (mi.) Weather Sky Cond. Temperature (ºF) Relative Humidity Wind Chill (°F) Heat Index (°F) Pressure Precipitation (in)
Air Dwpt 6 hour altimeter (in) sea level (mb) 1 hr 3 hr 6 hr
Max. Min.
04 06:47 Calm 10.00 Fair CLR 53.6 19.4 26% 29.84 0.0
04 06:15 Calm 10.00 Fair CLR 50 21.2 32% 29.83 0.0
04 05:55 Calm 10.00 Fair CLR 50 21.2 32% 29.83 0.0
04 05:35 W 3 10.00 Fair CLR 46.4 21.2 37% 29.84 0.0
04 05:15 Calm 10.00 Fair CLR 50 21.2 32% 29.84 0.0
04 04:55 Calm 10.00 Fair CLR 50 23 35% 29.84 0.0
04 04:35 Calm 10.00 Fair CLR 51.8 23 32% 29.85 0.0
04 04:15 Calm 10.00 Fair CLR 51.8 24.8 35% 29.86 0.0
04 03:55 Calm 10.00 Fair CLR 51.8 26.6 38% 29.86 0.0
04 03:35 Calm 10.00 Fair CLR 51.8 23 32% 29.86 0.0
04 03:15 Calm 10.00 Fair CLR 50 23 35% 29.87 0.0
04 02:55 SW 3 10.00 Fair CLR 48.2 23 37% 29.87 0.0
04 02:35 Calm 10.00 Fair CLR 50 23 35% 29.87 0.0
04 02:15 W 3 10.00 Fair CLR 48.2 24.8 40% 29.87 0.0
04 01:55 Calm 10.00 Fair CLR 51.8 26.6 38% 29.88 0.0
04 01:35 NW 3 10.00 Fair CLR 53.6 24.8 33% 29.88 0.0
04 01:15 N 10 10.00 Fair CLR 53.6 26.6 35% 29.89 0.0
04 00:55 N 14 10.00 Fair CLR 55.4 26.6 33% 29.89 0.0
04 00:35 N 14 10.00 Fair CLR 55.4 26.6 33% 29.89 0.0
04 00:15 N 17 10.00 Fair CLR 55.4 24.8 31% 29.89 0.0
03 23:55 NW 15 10.00 Fair CLR 59 23 25% 29.89 0.0
03 23:35 NW 10 10.00 Fair CLR 59 23 25% 29.89 0.0
03 23:15 W 14 10.00 Fair CLR 55.4 23 28% 29.89 0.0
03 22:55 W 10 10.00 Fair CLR 57.2 23 27% 29.89 0.0
03 22:35 W 10 10.00 Fair CLR 59 23 25% 29.89 0.0
03 22:15 W 10 10.00 Fair CLR 59 24.8 27% 29.9 0.0
03 21:55 W 12 10.00 Fair CLR 60.8 24.8 25% 29.9 0.0
03 21:35 SW 6 10.00 Fair CLR 62.6 23 22% 29.91 0.0
03 21:15 S 5 10.00 Fair CLR 62.6 24.8 24% 29.91 0.0
03 20:55 SW 6 10.00 Fair CLR 62.6 26.6 25% 29.91 0.0
03 20:35 SW 10 10.00 Fair CLR 64.4 24.8 22% 29.9 0.0
03 20:15 W 14 G 17 10.00 Fair CLR 64.4 21.2 19% 29.9 0.0
03 18:52 NW 18 G 22 10.00 Mostly Cloudy SCT045 BKN110 66.2 24.8 21% 29.91 0.0
03 17:52 NW 18 G 22 10.00 Mostly Cloudy SCT045 BKN110 68 24.8 20% 29.93 0.0
03 16:48 N 7 10.00 Mostly Cloudy SCT095 BKN120 69.8 21.2 16% 29.92 0.0
03 16:47 NW 9 10.00 Mostly Cloudy SCT080 BKN110 71.6 17.6 13% 29.93 0.0
03 14:51 W 9 10.00 Partly Cloudy SCT120 71.6 15.8 12% 29.94 0.0
03 12:46 NE 10 G 18 10.00 Fair CLR 71.6 15.8 12% 29.98 0.0
03 11:55 W 8 G 20 10.00 Fair CLR 69.8 15.8 12% 30.02 0.0
03 09:50 W 18 G 25 10.00 Fair CLR 66.2 17.6 15% 30.05 0.0
03 08:53 W 20 10.00 Fair CLR 64.4 17.6 16% 30.06 0.0
03 08:04 W 24 G 30 10.00 Fair and Breezy CLR 60.8 15.8 17% 30.05 0.0
03 07:45 W 7 G 17 10.00 Fair CLR 60.8 15.8 17% 30.06 0.0
03 06:45 SW 9 10.00 Fair CLR 55.4 19.4 24% 30.04 0.0
03 06:15 SW 7 10.00 Fair CLR 51.8 19.4 28% 30.04 0.0
03 05:55 W 6 10.00 Fair CLR 53.6 19.4 26% 30.04 0.0
03 05:35 SW 7 10.00 Fair CLR 51.8 21.2 30% 30.04 0.0
03 05:15 W 7 10.00 Fair CLR 51.8 21.2 30% 30.03 0.0
03 04:55 W 8 10.00 Fair CLR 50 21.2 32% 47 30.04 0.0
03 04:35 W 9 10.00 Fair CLR 50 21.2 32% 47 30.04 0.0
03 04:15 W 10 10.00 Fair CLR 50 21.2 32% 46 30.04 0.0
03 03:55 W 9 10.00 Fair CLR 50 21.2 32% 47 30.04 0.0
03 03:35 W 8 10.00 Fair CLR 51.8 21.2 30% 30.04 0.0
03 03:15 W 10 10.00 Fair CLR 51.8 21.2 30% 30.05 0.0
03 02:55 W 10 10.00 Fair CLR 50 21.2 32% 46 30.04 0.0
03 02:35 W 14 10.00 Fair CLR 51.8 21.2 30% 30.04 0.0
03 02:15 W 18 10.00 Fair CLR 55.4 19.4 24% 30.04 0.0
03 01:55 SW 5 10.00 Fair CLR 50 15.8 26% 49 30.05 0.0
03 01:35 W 13 10.00 Fair CLR 53.6 17.6 24% 30.05 0.0
03 01:15 W 9 10.00 Fair CLR 51.8 10.4 19% 30.06 0.0
03 00:55 W 9 10.00 Fair CLR 50 8.6 19% 47 30.06 0.0
03 00:35 W 7 10.00 Fair CLR 51.8 8.6 17% 30.07 0.0
03 00:15 W 7 10.00 Fair CLR 51.8 10.4 19% 30.07 0.0
02 23:55 W 7 10.00 Fair CLR 51.8 12.2 20% 30.07 0.0
02 23:35 W 8 10.00 Fair CLR 53.6 10.4 18% 30.07 0.0
02 23:15 W 6 10.00 Fair CLR 53.6 10.4 18% 30.07 0.0
02 22:55 W 7 10.00 Fair CLR 55.4 8.6 15% 30.07 0.0
02 22:35 NW 3 10.00 Fair CLR 60.8 10.4 13% 30.08 0.0
02 22:15 Calm 10.00 Fair CLR 60.8 10.4 13% 30.07 0.0
02 21:55 Calm 10.00 Fair CLR 59 8.6 13% 30.07 0.0
02 21:35 E 5 10.00 Fair CLR 62.6 8.6 12% 30.07 0.0
02 21:15 Calm 10.00 Fair CLR 62.6 8.6 12% 30.07 0.0
02 20:55 NE 3 10.00 Fair CLR 62.6 6.8 11% 30.07 0.0
02 20:35 NE 3 10.00 Fair CLR 62.6 5 10% 30.06 0.0
02 20:15 E 5 10.00 Fair CLR 64.4 5 9% 30.06 0.0
02 19:45 E 6 10.00 Fair CLR 64.4 3.2 9% 30.05 0.0
02 18:45 NE 7 10.00 Fair CLR 69.8 -0.4 6% 30.05 0.0
02 17:50 E 6 10.00 A Few Clouds FEW120 69.8 5 8% 30.06 0.0
02 16:47 E 5 10.00 A Few Clouds FEW120 69.8 8.6 9% 30.07 0.0
02 15:47 SE 8 10.00 A Few Clouds FEW120 69.8 8.6 9% 30.09 0.0
02 14:47 S 9 G 17 10.00 Fair CLR 69.8 10.4 10% 30.12 0.0
02 13:50 E 9 10.00 Fair CLR 68 14 12% 30.14 0.0
02 12:47 SE 8 G 22 10.00 Fair CLR 66.2 14 13% 30.16 0.0
02 11:52 NE 8 G 16 10.00 Fair CLR 64.4 14 14% 30.19 0.0
02 11:45 E 10 10.00 Fair CLR 64.4 14 14% 30.19 0.0
02 10:47 N 6 10.00 Fair CLR 60.8 14 16% 30.2 0.0
02 09:46 E 3 10.00 Clear SKC 60.8 14 16% 30.2 0.0
02 08:47 Calm 10.00 Clear SKC 53.6 19.4 26% 30.22 0.0
02 06:45 Calm 10.00 Clear SKC 42.8 19.4 39% 30.21 0.0
02 06:15 Calm 10.00 Fair CLR 41 19.4 42% 30.2 0.0
02 05:55 NW 3 10.00 Fair CLR 42.8 19.4 39% 30.19 0.0
02 05:35 Calm 10.00 Fair CLR 42.8 21.2 42% 30.19 0.0
02 05:15 NE 5 10.00 Fair CLR 41 21.2 45% 38 30.19 0.0
02 04:55 N 6 10.00 Fair CLR 41 21.2 45% 38 30.19 0.0
02 04:35 NE 7 10.00 Fair CLR 39.2 19.4 45% 35 30.19 0.0
02 04:15 Calm 10.00 Fair CLR 41 19.4 42% 30.18 0.0
02 03:55 Calm 10.00 Fair CLR 42.8 17.6 36% 30.18 0.0
02 03:35 W 3 10.00 Fair CLR 41 17.6 39% 30.18 0.0
02 03:15 W 8 10.00 Fair CLR 41 19.4 42% 36 30.18 0.0
02 02:55 W 5 10.00 Fair CLR 41 19.4 42% 38 30.18 0.0
02 02:35 W 6 10.00 Fair CLR 42.8 19.4 39% 40 30.18 0.0
02 02:15 W 6 10.00 Fair CLR 44.6 19.4 37% 42 30.18 0.0
02 01:55 W 5 10.00 Fair CLR 44.6 19.4 37% 43 30.19 0.0
02 01:35 W 7 10.00 Fair CLR 44.6 19.4 37% 41 30.19 0.0
02 01:15 W 7 10.00 Fair CLR 44.6 19.4 37% 41 30.19 0.0
02 00:35 W 6 10.00 Overcast OVC100 48.2 17.6 29% 46 30.2 0.0
02 00:15 W 6 10.00 Overcast OVC100 46.4 17.6 32% 44 30.2 0.0
01 23:55 W 6 10.00 Mostly Cloudy BKN100 48.2 17.6 29% 46 30.2 0.0
01 23:35 W 7 10.00 Mostly Cloudy BKN100 48.2 17.6 29% 46 30.2 0.0
01 23:15 Calm 10.00 Overcast OVC100 50 17.6 28% 30.2 0.0
01 22:55 N 3 10.00 Overcast OVC110 51.8 15.8 24% 30.2 0.0
01 22:35 Calm 10.00 Overcast OVC110 51.8 14 22% 30.2 0.0
01 22:15 Calm 10.00 Overcast OVC110 51.8 14 22% 30.19 0.0
01 21:55 NE 5 10.00 Mostly Cloudy BKN110 51.8 14 22% 30.18 0.0
01 21:35 NE 5 10.00 Mostly Cloudy BKN110 53.6 14 21% 30.17 0.0
01 21:15 NE 6 10.00 Overcast OVC110 53.6 14 21% 30.16 0.0
01 20:55 NE 5 10.00 Mostly Cloudy BKN110 53.6 12.2 19% 30.15 0.0
01 20:35 NE 5 10.00 Mostly Cloudy BKN110 53.6 14 21% 30.14 0.0
01 20:15 NE 5 10.00 Mostly Cloudy BKN110 55.4 12.2 18% 30.14 0.0
01 19:45 NE 9 10.00 Partly Cloudy SCT110 57.2 12.2 17% 30.13 0.0
01 18:47 N 7 10.00 Fair CLR 60.8 12.2 15% 30.12 0.0
01 17:47 N 7 10.00 Fair CLR 60.8 12.2 15% 30.1 0.0
01 15:45 NE 12 G 21 10.00 Fair CLR 60.8 14 16% 30.12 0.0
01 13:48 N 3 10.00 Fair CLR 59 15.8 18% 30.14 0.0
01 11:47 N 7 10.00 Fair CLR 55.4 17.6 23% 30.17 0.0
01 10:58 Calm 10.00 Fair CLR 53.6 19.4 26% 30.18 0.0
01 09:47 Calm 10.00 Fair CLR 51.8 21.2 30% 30.17 0.0
01 08:47 N 3 10.00 Fair CLR 48.2 24.8 40% 30.18 0.0
01 07:48 Calm 10.00 Fair CLR 42.8 30.2 61% 30.17 0.0
Date Time (mdt) Wind (mph) Vis. (mi.) Weather Sky Cond. Air Dwpt Max. Min. Relative Humidity Wind Chill (°F) Heat Index (°F) altimeter (in) sea level (mb) 1 hr 3 hr 6 hr
6 hour
Temperature (ºF) Pressure Precipitation (in)